Time;durP1;ratioP1;P1;durP2;ratioP2;P2;SDS_P1;SDS_P2;PMS_P1;PMS_P2;Temp;Humidity;BMP_temperature;BMP_pressure;BME280_temperature;BME280_humidity;BME280_pressure;Samples;Min_cycle;Max_cycle;Signal;HPM_P1;HPM_P2
2023/05/16 00:06:30;;;;;;;5.28;2.78;;;;;;;25.12;27.68;101650.41;20960726;28;20045;-64
2023/05/16 00:16:32;;;;;;;6.03;3.70;;;;;;;25.12;27.85;101642.00;20971729;28;20086;-66
2023/05/16 00:26:33;;;;;;;6.03;3.92;;;;;;;24.77;27.94;101573.91;20970631;28;20411;-66
2023/05/16 00:36:35;;;;;;;5.40;3.38;;;;;;;25.10;28.07;101633.03;21001281;28;20036;-65
2023/05/16 00:46:39;;;;;;;4.55;3.47;;;;;;;24.81;28.40;101597.41;20937250;28;20041;-65
2023/05/16 00:56:41;;;;;;;6.30;3.40;;;;;;;24.56;28.45;101558.44;20909468;28;20119;-65
2023/05/16 01:06:43;;;;;;;6.15;3.20;;;;;;;25.05;28.37;101641.44;20929025;28;20113;-65
2023/05/16 01:17:14;;;;;;;5.00;3.47;;;;;;;24.99;28.83;101639.81;20991581;28;20049;-66
2023/05/16 01:27:16;;;;;;;5.32;3.40;;;;;;;24.77;29.66;101635.50;20950133;28;20071;-67
2023/05/16 01:37:26;;;;;;;7.25;3.83;;;;;;;24.85;30.04;101645.25;20924057;28;20037;-65
2023/05/16 01:47:32;;;;;;;5.85;3.58;;;;;;;24.83;30.64;101648.34;20943583;28;20045;-66
2023/05/16 01:57:35;;;;;;;7.75;3.90;;;;;;;24.63;30.69;101619.66;20922867;28;20102;-66
2023/05/16 02:07:40;;;;;;;6.28;3.90;;;;;;;24.90;30.70;101639.59;20989902;28;20036;-66
2023/05/16 02:17:41;;;;;;;8.18;3.78;;;;;;;24.99;30.52;101625.81;20939268;28;20075;-65
2023/05/16 02:27:43;;;;;;;5.47;3.70;;;;;;;25.02;30.98;101614.88;20974864;28;20044;-66
2023/05/16 02:37:44;;;;;;;7.65;3.40;;;;;;;25.05;31.58;101607.84;20937880;28;20081;-63
2023/05/16 02:47:46;;;;;;;5.82;3.53;;;;;;;25.07;31.53;101594.41;20956283;28;20041;-63
2023/05/16 02:57:47;;;;;;;6.65;3.20;;;;;;;25.01;31.35;101584.34;20973529;28;20036;-64
2023/05/16 03:07:48;;;;;;;9.65;4.10;;;;;;;24.75;32.01;101550.16;20985603;28;20041;-66
2023/05/16 03:17:50;;;;;;;13.68;4.10;;;;;;;24.91;31.96;101562.06;20982594;28;20596;-66
2023/05/16 03:27:51;;;;;;;12.18;4.15;;;;;;;24.99;32.06;101555.81;20990305;28;20499;-67
2023/05/16 03:37:53;;;;;;;8.68;4.00;;;;;;;24.98;32.13;101554.16;20994465;28;20373;-67
2023/05/16 03:47:54;;;;;;;6.63;3.50;;;;;;;24.99;32.80;101541.81;20972008;28;20041;-66
2023/05/16 03:57:56;;;;;;;6.82;3.85;;;;;;;24.94;32.77;101527.88;20995478;28;20416;-66
2023/05/16 04:07:57;;;;;;;4.75;3.90;;;;;;;24.93;32.76;101515.84;20938214;28;20041;-66
2023/05/16 04:17:58;;;;;;;7.68;4.13;;;;;;;24.92;33.34;101519.75;20958937;28;20033;-66
2023/05/16 04:28:00;;;;;;;6.60;4.15;;;;;;;24.91;33.79;101517.25;20970574;28;20082;-66
2023/05/16 04:38:01;;;;;;;4.68;3.90;;;;;;;24.89;33.68;101502.72;20968456;28;20067;-67
2023/05/16 04:48:05;;;;;;;4.70;4.25;;;;;;;24.87;33.94;101489.00;20945822;28;20041;-66
2023/05/16 04:58:09;;;;;;;8.10;4.70;;;;;;;24.79;34.49;101470.09;20962063;28;20044;-66
2023/05/16 05:08:10;;;;;;;6.65;4.55;;;;;;;24.78;34.40;101458.03;20959662;28;20121;-67
2023/05/16 05:18:12;;;;;;;6.32;4.88;;;;;;;24.74;34.83;101442.97;20937950;28;20041;-66
2023/05/16 05:28:13;;;;;;;6.10;4.25;;;;;;;24.75;34.99;101425.03;20959412;28;20060;-67
2023/05/16 05:38:15;;;;;;;4.97;4.40;;;;;;;24.73;35.09;101421.69;20954330;28;20040;-67
2023/05/16 05:48:16;;;;;;;6.50;4.57;;;;;;;24.56;35.47;101382.16;20956569;28;20044;-66
2023/05/16 05:58:17;;;;;;;5.70;4.03;;;;;;;24.67;35.34;101394.06;20937768;28;20159;-67
2023/05/16 06:08:19;;;;;;;8.75;4.78;;;;;;;24.64;35.66;101378.69;20936214;28;20569;-67
2023/05/16 06:18:20;;;;;;;6.97;4.35;;;;;;;24.64;35.41;101361.91;20938587;28;20041;-66
2023/05/16 06:28:23;;;;;;;5.85;4.47;;;;;;;24.61;36.04;101354.13;20943585;28;20462;-66
2023/05/16 06:38:24;;;;;;;8.00;4.30;;;;;;;24.57;36.06;101350.25;20961670;28;20098;-67
2023/05/16 06:48:25;;;;;;;6.03;4.13;;;;;;;24.55;35.90;101347.72;20943707;28;20045;-65
2023/05/16 06:58:26;;;;;;;5.55;4.82;;;;;;;24.55;36.21;101328.13;20932846;28;20039;-65
2023/05/16 07:08:28;;;;;;;7.50;4.50;;;;;;;24.57;36.06;101322.25;20966228;28;20088;-66
2023/05/16 07:18:29;;;;;;;7.07;4.90;;;;;;;24.31;36.59;101263.75;20947273;28;20071;-66
2023/05/16 07:28:31;;;;;;;5.82;4.85;;;;;;;24.54;36.67;101303.25;20932308;28;20102;-65
2023/05/16 07:38:32;;;;;;;6.78;5.22;;;;;;;24.50;36.76;101288.19;20942887;28;20067;-65
2023/05/16 07:48:36;;;;;;;9.23;5.45;;;;;;;24.33;36.81;101261.50;20951630;28;20476;-66
2023/05/16 07:58:38;;;;;;;5.63;4.97;;;;;;;24.43;37.51;101280.16;20935651;28;20461;-66
2023/05/16 08:08:45;;;;;;;6.53;4.65;;;;;;;24.07;37.38;101218.16;20947697;28;20446;-66
2023/05/16 08:18:46;;;;;;;6.20;5.17;;;;;;;24.33;38.00;101266.28;20963316;28;20082;-66
2023/05/16 08:28:48;;;;;;;7.53;5.25;;;;;;;24.28;37.77;101264.38;20945754;28;20488;-66
2023/05/16 08:38:49;;;;;;;7.68;5.65;;;;;;;24.22;38.20;101245.94;20937269;28;20536;-66
2023/05/16 08:48:52;;;;;;;6.22;5.10;;;;;;;24.18;38.41;101222.50;20948765;28;20765;-67
2023/05/16 08:58:56;;;;;;;5.82;5.15;;;;;;;24.23;38.24;101239.22;20992796;28;20041;-66
2023/05/16 09:08:58;;;;;;;11.52;5.63;;;;;;;24.18;38.39;101236.47;20959698;28;20047;-66
2023/05/16 09:19:00;;;;;;;7.10;5.43;;;;;;;24.17;38.28;101220.00;20982266;28;20102;-66
2023/05/16 09:29:10;;;;;;;7.18;5.60;;;;;;;24.11;38.66;101213.66;20908621;28;20049;-66
2023/05/16 09:39:14;;;;;;;7.63;5.45;;;;;;;24.14;38.98;101215.84;20917064;28;20091;-65
2023/05/16 09:49:16;;;;;;;7.53;5.47;;;;;;;24.11;38.81;101196.88;20967859;28;20052;-64
2023/05/16 09:59:17;;;;;;;7.45;5.53;;;;;;;24.05;38.84;101186.84;21000388;28;20044;-65
2023/05/16 10:09:21;;;;;;;6.30;5.65;;;;;;;24.09;38.95;101210.31;21076375;28;20044;-65
2023/05/16 10:19:25;;;;;;;9.65;6.95;;;;;;;24.07;39.23;101213.41;21023475;28;20098;-65
2023/05/16 10:29:27;;;;;;;10.05;6.35;;;;;;;24.03;39.48;101189.97;21000626;28;20049;-64
2023/05/16 10:39:32;;;;;;;8.18;6.35;;;;;;;24.00;39.67;101184.13;20954210;28;20021;-65
2023/05/16 10:49:33;;;;;;;13.38;6.05;;;;;;;23.98;39.65;101175.22;20953571;28;20074;-65
2023/05/16 10:59:45;;;;;;;8.63;6.60;;;;;;;24.02;39.35;101188.31;20921958;28;20044;-66
2023/05/16 11:10:02;;;;;;;9.85;6.50;;;;;;;24.03;39.48;101183.53;20968846;28;20093;-65
2023/05/16 11:20:04;;;;;;;10.20;6.95;;;;;;;24.02;39.37;101191.09;20957557;28;20063;-65
2023/05/16 11:30:06;;;;;;;8.48;6.13;;;;;;;24.01;39.14;101185.81;20985376;28;20062;-66
2023/05/16 11:40:10;;;;;;;21.23;7.25;;;;;;;24.02;39.31;101187.47;20981089;28;20093;-66
2023/05/16 11:50:27;;;;;;;11.75;6.70;;;;;;;23.99;39.52;101176.88;21032352;28;20041;-66
2023/05/16 12:00:28;;;;;;;15.25;6.60;;;;;;;24.03;39.44;101150.81;20962706;28;20041;-67
2023/05/16 12:10:32;;;;;;;10.85;6.70;;;;;;;24.06;39.62;101127.03;20924253;28;20098;-67
2023/05/16 12:20:37;;;;;;;10.07;6.40;;;;;;;24.06;39.41;101127.03;20942821;28;20099;-67
2023/05/16 12:30:46;;;;;;;8.38;6.30;;;;;;;23.98;39.36;101099.75;20964080;28;20075;-67
2023/05/16 12:40:48;;;;;;;8.07;6.60;;;;;;;24.15;39.46;101105.69;21001529;28;20036;-67
2023/05/16 12:50:49;;;;;;;13.27;7.15;;;;;;;23.87;39.15;101033.91;21020293;28;20097;-66
2023/05/16 13:00:51;;;;;;;11.15;6.13;;;;;;;24.18;38.89;101062.28;21004525;28;20367;-65
2023/05/16 13:10:56;;;;;;;10.55;6.47;;;;;;;24.26;39.13;101050.44;20993031;28;20040;-67
2023/05/16 13:20:57;;;;;;;8.25;6.30;;;;;;;24.30;39.03;101043.94;21035472;28;20054;-67
2023/05/16 13:30:59;;;;;;;9.75;6.45;;;;;;;24.32;39.32;101038.88;21012375;28;20053;-69
2023/05/16 13:41:00;;;;;;;12.48;6.38;;;;;;;24.15;38.86;100991.06;20980724;28;20044;-68
2023/05/16 13:51:05;;;;;;;11.15;6.60;;;;;;;24.44;38.77;101015.25;21036424;28;20047;-67
2023/05/16 14:01:07;;;;;;;9.40;5.72;;;;;;;24.45;38.44;100977.75;21015738;28;20041;-66
2023/05/16 14:11:08;;;;;;;10.20;6.10;;;;;;;24.50;38.14;100949.69;21004518;28;20044;-67
2023/05/16 14:21:10;;;;;;;9.38;5.95;;;;;;;24.45;37.95;100910.63;21003693;28;20094;-68
2023/05/16 14:31:15;;;;;;;7.63;5.40;;;;;;;24.57;37.48;100900.63;21001487;28;20113;-67
2023/05/16 14:41:17;;;;;;;9.45;5.90;;;;;;;24.51;36.98;100859.03;21003511;28;20375;-66
2023/05/16 14:51:18;;;;;;;9.50;5.40;;;;;;;24.67;36.95;100854.84;21001657;28;20031;-67
2023/05/16 15:01:20;;;;;;;8.35;5.63;;;;;;;24.72;36.90;100835.16;21000676;28;20093;-67
2023/05/16 15:11:22;;;;;;;9.13;4.95;;;;;;;24.75;35.47;100817.75;20999798;28;20399;-66
2023/05/16 15:21:24;;;;;;;6.93;4.80;;;;;;;24.72;35.52;100807.16;20998967;28;20490;-67
2023/05/16 15:31:25;;;;;;;6.15;4.18;;;;;;;24.60;35.03;100750.88;20998016;28;20032;-66
2023/05/16 15:41:27;;;;;;;9.48;4.28;;;;;;;24.83;34.47;100761.06;20996004;28;20040;-66
2023/05/16 15:51:31;;;;;;;6.53;4.15;;;;;;;24.87;34.60;100749.22;20995760;28;20037;-66
2023/05/16 16:01:32;;;;;;;8.35;4.28;;;;;;;24.90;34.06;100717.81;20995470;28;20040;-67
2023/05/16 16:11:34;;;;;;;10.95;4.50;;;;;;;24.81;34.06;100696.16;20994108;28;20049;-67
2023/05/16 16:21:35;;;;;;;6.32;4.43;;;;;;;24.96;34.43;100681.00;20992527;28;20037;-65
2023/05/16 16:31:39;;;;;;;28.40;5.40;;;;;;;24.90;35.12;100656.25;20992972;28;20118;-66
2023/05/16 16:41:44;;;;;;;31.40;6.55;;;;;;;25.06;35.01;100640.72;20993189;28;20055;-67
2023/05/16 16:51:46;;;;;;;8.85;4.78;;;;;;;25.13;35.03;100618.75;20992205;28;20049;-67
2023/05/16 17:01:50;;;;;;;20.98;5.32;;;;;;;25.17;34.92;100597.38;21018352;28;20033;-67
2023/05/16 17:11:54;;;;;;;30.63;6.55;;;;;;;24.98;35.19;100557.53;21018533;28;20036;-67
2023/05/16 17:21:55;;;;;;;14.18;4.70;;;;;;;25.20;34.99;100557.56;21052097;28;20101;-67
2023/05/16 17:31:57;;;;;;;26.02;6.05;;;;;;;25.20;34.63;100526.75;21102996;28;20043;-67
2023/05/16 17:41:58;;;;;;;50.60;6.70;;;;;;;25.30;34.87;100506.88;21036456;28;20086;-69
2023/05/16 17:51:59;;;;;;;27.98;5.75;;;;;;;25.40;35.34;100504.94;21017753;28;20052;-69
2023/05/16 18:02:02;;;;;;;27.70;7.90;;;;;;;25.41;35.07;100468.19;21019601;28;20032;-69
2023/05/16 18:12:04;;;;;;;14.57;5.20;;;;;;;25.35;34.61;100425.50;21039976;28;20044;-70
2023/05/16 18:22:07;;;;;;;10.20;4.93;;;;;;;24.83;34.02;100324.50;21002710;28;20044;-69
2023/05/16 18:32:08;;;;;;;12.45;4.82;;;;;;;25.56;33.51;100410.91;21068530;28;20086;-69
2023/05/16 18:42:12;;;;;;;16.55;7.38;;;;;;;25.55;34.17;100386.84;21054635;28;20086;-68
2023/05/16 18:52:14;;;;;;;25.40;6.43;;;;;;;25.58;33.99;100361.81;21001494;28;20048;-68
2023/05/16 19:02:15;;;;;;;21.90;6.63;;;;;;;25.55;34.04;100339.22;21000379;28;20471;-68
2023/05/16 19:12:19;;;;;;;16.60;7.82;;;;;;;25.59;34.93;100338.22;21007082;28;20463;-68
2023/05/16 19:22:20;;;;;;;20.40;7.30;;;;;;;25.46;34.44;100296.34;21004867;28;20503;-68
2023/05/16 19:32:22;;;;;;;15.32;6.18;;;;;;;25.56;34.68;100284.81;20998355;28;20053;-69
2023/05/16 19:42:26;;;;;;;17.10;6.60;;;;;;;25.50;34.93;100269.34;20997759;28;20442;-68
2023/05/16 19:52:28;;;;;;;13.30;7.38;;;;;;;25.58;34.99;100262.94;20996573;28;20041;-68
2023/05/16 20:02:30;;;;;;;13.45;6.35;;;;;;;25.54;34.75;100231.94;20996057;28;20450;-68
2023/05/16 20:12:31;;;;;;;9.13;6.45;;;;;;;25.57;34.96;100213.66;20930477;28;20407;-69
2023/05/16 20:22:37;;;;;;;10.20;6.90;;;;;;;25.56;34.81;100189.56;20911550;28;20419;-69
2023/05/16 20:32:41;;;;;;;9.70;6.85;;;;;;;25.58;35.14;100185.31;20910228;28;20123;-68
2023/05/16 20:42:42;;;;;;;11.30;6.75;;;;;;;25.68;34.76;100205.72;20909890;28;20037;-68
2023/05/16 20:52:44;;;;;;;11.00;6.95;;;;;;;25.67;35.21;100204.91;20909691;28;20056;-68
2023/05/16 21:02:46;;;;;;;13.38;6.28;;;;;;;25.67;35.33;100196.50;20909361;28;20037;-68
2023/05/16 21:12:48;;;;;;;9.63;6.68;;;;;;;25.65;34.95;100176.38;20908996;28;20057;-69
2023/05/16 21:22:50;;;;;;;8.85;5.72;;;;;;;25.63;35.25;100173.09;20908697;28;20081;-69
2023/05/16 21:32:51;;;;;;;10.07;6.55;;;;;;;25.67;35.26;100182.50;20908533;28;20114;-68
2023/05/16 21:42:52;;;;;;;8.80;6.65;;;;;;;25.63;35.19;100164.69;20911813;28;20099;-68
2023/05/16 21:52:54;;;;;;;9.75;6.00;;;;;;;25.63;35.20;100159.09;20923500;28;20071;-68
2023/05/16 22:02:55;;;;;;;8.65;6.13;;;;;;;25.68;35.52;100142.09;20921632;28;20399;-68
2023/05/16 22:12:56;;;;;;;10.18;5.82;;;;;;;24.92;35.41;99979.44;20985803;28;20049;-68
2023/05/16 22:22:58;;;;;;;7.82;5.82;;;;;;;25.59;35.58;100088.06;21003692;28;20036;-68
2023/05/16 22:32:59;;;;;;;6.78;5.97;;;;;;;25.58;35.36;100064.84;21003233;28;20032;-68
2023/05/16 22:43:00;;;;;;;9.00;6.65;;;;;;;25.65;35.36;100058.69;21002223;28;20552;-68
2023/05/16 22:53:02;;;;;;;6.95;5.43;;;;;;;25.68;35.65;100060.84;20999477;28;20045;-69
2023/05/16 23:03:03;;;;;;;6.55;5.35;;;;;;;25.69;35.82;100054.06;21000929;28;20048;-70
2023/05/16 23:13:05;;;;;;;8.65;5.60;;;;;;;25.64;35.70;100034.66;20999582;28;20479;-68
2023/05/16 23:23:06;;;;;;;8.65;6.65;;;;;;;25.68;35.84;100035.63;20998354;28;20098;-69
2023/05/16 23:33:15;;;;;;;6.70;5.70;;;;;;;25.20;35.88;99961.16;20998280;28;20048;-68
2023/05/16 23:43:17;;;;;;;7.30;6.07;;;;;;;25.71;36.00;100039.75;20997445;28;20037;-69
2023/05/16 23:53:19;;;;;;;7.45;6.28;;;;;;;25.69;35.97;100025.25;20996517;28;20041;-68
